sensor_id;sensor_type;location;lat;lon;timestamp;temperature;humidity
19152;DHT22;9708;53.114;9.388;2022-09-09T00:00:25;15.00;99.90
19152;DHT22;9708;53.114;9.388;2022-09-09T00:02:58;14.90;99.90
19152;DHT22;9708;53.114;9.388;2022-09-09T00:05:32;14.80;99.90
19152;DHT22;9708;53.114;9.388;2022-09-09T00:08:07;14.80;99.90
19152;DHT22;9708;53.114;9.388;2022-09-09T00:10:39;14.70;99.90
19152;DHT22;9708;53.114;9.388;2022-09-09T00:13:15;14.70;99.90
19152;DHT22;9708;53.114;9.388;2022-09-09T00:15:49;14.70;99.90
19152;DHT22;9708;53.114;9.388;2022-09-09T00:18:25;14.70;99.90
19152;DHT22;9708;53.114;9.388;2022-09-09T00:20:58;14.70;99.90
19152;DHT22;9708;53.114;9.388;2022-09-09T00:23:34;14.70;99.90
19152;DHT22;9708;53.114;9.388;2022-09-09T00:26:06;14.60;99.90
19152;DHT22;9708;53.114;9.388;2022-09-09T00:28:39;14.60;99.90
19152;DHT22;9708;53.114;9.388;2022-09-09T00:31:12;14.60;99.90
19152;DHT22;9708;53.114;9.388;2022-09-09T00:33:40;14.70;99.90
19152;DHT22;9708;53.114;9.388;2022-09-09T00:36:13;14.70;99.90
19152;DHT22;9708;53.114;9.388;2022-09-09T00:38:44;14.70;99.90
19152;DHT22;9708;53.114;9.388;2022-09-09T00:41:17;14.60;99.90
19152;DHT22;9708;53.114;9.388;2022-09-09T00:43:55;14.60;99.90
19152;DHT22;9708;53.114;9.388;2022-09-09T00:46:45;14.50;99.90
19152;DHT22;9708;53.114;9.388;2022-09-09T00:49:22;14.50;99.90
19152;DHT22;9708;53.114;9.388;2022-09-09T00:52:02;14.50;99.90
19152;DHT22;9708;53.114;9.388;2022-09-09T00:54:40;14.60;99.90
19152;DHT22;9708;53.114;9.388;2022-09-09T00:57:22;14.60;99.90
19152;DHT22;9708;53.114;9.388;2022-09-09T00:59:52;14.50;99.90
19152;DHT22;9708;53.114;9.388;2022-09-09T01:02:26;14.50;99.90
19152;DHT22;9708;53.114;9.388;2022-09-09T01:04:54;14.50;99.90
19152;DHT22;9708;53.114;9.388;2022-09-09T01:07:24;14.50;99.90
19152;DHT22;9708;53.114;9.388;2022-09-09T01:09:55;14.50;99.90
19152;DHT22;9708;53.114;9.388;2022-09-09T01:12:32;14.60;99.90
19152;DHT22;9708;53.114;9.388;2022-09-09T01:15:08;14.60;99.90
19152;DHT22;9708;53.114;9.388;2022-09-09T01:17:46;14.60;99.90
19152;DHT22;9708;53.114;9.388;2022-09-09T01:20:17;14.60;99.90
19152;DHT22;9708;53.114;9.388;2022-09-09T01:22:58;14.50;99.90
19152;DHT22;9708;53.114;9.388;2022-09-09T01:28:22;14.50;99.90
19152;DHT22;9708;53.114;9.388;2022-09-09T01:30:51;14.50;99.90
19152;DHT22;9708;53.114;9.388;2022-09-09T01:33:18;14.40;99.90
19152;DHT22;9708;53.114;9.388;2022-09-09T01:35:50;14.40;99.90
19152;DHT22;9708;53.114;9.388;2022-09-09T01:38:19;14.40;99.90
19152;DHT22;9708;53.114;9.388;2022-09-09T01:40:47;14.50;99.90
19152;DHT22;9708;53.114;9.388;2022-09-09T01:43:14;14.40;99.90
19152;DHT22;9708;53.114;9.388;2022-09-09T01:45:43;14.40;99.90
19152;DHT22;9708;53.114;9.388;2022-09-09T01:48:10;14.40;99.90
19152;DHT22;9708;53.114;9.388;2022-09-09T01:50:37;14.40;99.90
19152;DHT22;9708;53.114;9.388;2022-09-09T01:53:04;14.30;99.90
19152;DHT22;9708;53.114;9.388;2022-09-09T01:55:35;14.30;99.90
19152;DHT22;9708;53.114;9.388;2022-09-09T01:58:16;14.30;99.90
19152;DHT22;9708;53.114;9.388;2022-09-09T02:00:51;14.30;99.90
19152;DHT22;9708;53.114;9.388;2022-09-09T02:03:26;14.30;99.90
19152;DHT22;9708;53.114;9.388;2022-09-09T02:06:02;14.30;99.90
19152;DHT22;9708;53.114;9.388;2022-09-09T02:08:38;14.30;99.90
19152;DHT22;9708;53.114;9.388;2022-09-09T02:11:08;14.20;99.90
19152;DHT22;9708;53.114;9.388;2022-09-09T02:13:38;14.20;99.90
19152;DHT22;9708;53.114;9.388;2022-09-09T02:16:08;14.20;99.90
19152;DHT22;9708;53.114;9.388;2022-09-09T02:18:40;14.30;99.90
19152;DHT22;9708;53.114;9.388;2022-09-09T02:21:10;14.20;99.90
19152;DHT22;9708;53.114;9.388;2022-09-09T02:23:39;14.30;99.90
19152;DHT22;9708;53.114;9.388;2022-09-09T02:26:09;14.20;99.90
19152;DHT22;9708;53.114;9.388;2022-09-09T02:28:37;14.20;99.90
19152;DHT22;9708;53.114;9.388;2022-09-09T02:31:06;14.20;99.90
19152;DHT22;9708;53.114;9.388;2022-09-09T02:33:38;14.20;99.90
19152;DHT22;9708;53.114;9.388;2022-09-09T02:36:08;14.10;99.90
19152;DHT22;9708;53.114;9.388;2022-09-09T02:38:38;14.00;99.90
19152;DHT22;9708;53.114;9.388;2022-09-09T02:41:07;14.00;99.90
19152;DHT22;9708;53.114;9.388;2022-09-09T02:43:34;14.00;99.90
19152;DHT22;9708;53.114;9.388;2022-09-09T02:46:06;14.00;99.90
19152;DHT22;9708;53.114;9.388;2022-09-09T02:48:41;13.90;99.90
19152;DHT22;9708;53.114;9.388;2022-09-09T02:51:17;13.90;99.90
19152;DHT22;9708;53.114;9.388;2022-09-09T02:53:50;14.00;99.90
19152;DHT22;9708;53.114;9.388;2022-09-09T02:56:21;14.00;99.90
19152;DHT22;9708;53.114;9.388;2022-09-09T02:58:50;13.90;99.90
19152;DHT22;9708;53.114;9.388;2022-09-09T03:01:17;13.90;99.90
19152;DHT22;9708;53.114;9.388;2022-09-09T03:03:45;13.90;99.90
19152;DHT22;9708;53.114;9.388;2022-09-09T03:06:12;13.80;99.90
19152;DHT22;9708;53.114;9.388;2022-09-09T03:08:39;13.80;99.90
19152;DHT22;9708;53.114;9.388;2022-09-09T03:11:07;13.80;99.90
19152;DHT22;9708;53.114;9.388;2022-09-09T03:13:35;13.70;99.90
19152;DHT22;9708;53.114;9.388;2022-09-09T03:16:03;13.80;99.90
19152;DHT22;9708;53.114;9.388;2022-09-09T03:18:31;13.90;99.90
19152;DHT22;9708;53.114;9.388;2022-09-09T03:20:59;13.90;99.90
19152;DHT22;9708;53.114;9.388;2022-09-09T03:23:26;13.80;99.90
19152;DHT22;9708;53.114;9.388;2022-09-09T03:25:52;13.80;99.90
19152;DHT22;9708;53.114;9.388;2022-09-09T03:28:22;13.80;99.90
19152;DHT22;9708;53.114;9.388;2022-09-09T03:30:50;13.80;99.90
19152;DHT22;9708;53.114;9.388;2022-09-09T03:33:17;13.80;99.90
19152;DHT22;9708;53.114;9.388;2022-09-09T03:35:45;13.70;99.90
19152;DHT22;9708;53.114;9.388;2022-09-09T03:38:15;13.80;99.90
19152;DHT22;9708;53.114;9.388;2022-09-09T03:40:49;13.80;99.90
19152;DHT22;9708;53.114;9.388;2022-09-09T03:43:16;13.70;99.90
19152;DHT22;9708;53.114;9.388;2022-09-09T03:45:45;13.70;99.90
19152;DHT22;9708;53.114;9.388;2022-09-09T03:48:12;13.70;99.90
19152;DHT22;9708;53.114;9.388;2022-09-09T03:50:44;13.70;99.90
19152;DHT22;9708;53.114;9.388;2022-09-09T03:53:11;13.70;99.90
19152;DHT22;9708;53.114;9.388;2022-09-09T03:55:39;13.60;99.90
19152;DHT22;9708;53.114;9.388;2022-09-09T03:58:07;13.70;99.90
19152;DHT22;9708;53.114;9.388;2022-09-09T04:00:34;13.70;99.90
19152;DHT22;9708;53.114;9.388;2022-09-09T04:03:00;13.70;99.90
19152;DHT22;9708;53.114;9.388;2022-09-09T04:05:27;13.70;99.90
19152;DHT22;9708;53.114;9.388;2022-09-09T04:07:54;13.70;99.90
19152;DHT22;9708;53.114;9.388;2022-09-09T04:10:21;13.70;99.90
19152;DHT22;9708;53.114;9.388;2022-09-09T04:12:49;13.70;99.90
19152;DHT22;9708;53.114;9.388;2022-09-09T04:15:16;13.80;99.90
19152;DHT22;9708;53.114;9.388;2022-09-09T04:17:44;13.80;99.90
19152;DHT22;9708;53.114;9.388;2022-09-09T04:20:10;13.80;99.90
19152;DHT22;9708;53.114;9.388;2022-09-09T04:22:37;13.80;99.90
19152;DHT22;9708;53.114;9.388;2022-09-09T04:25:05;13.90;99.90
19152;DHT22;9708;53.114;9.388;2022-09-09T04:27:32;13.90;99.90
19152;DHT22;9708;53.114;9.388;2022-09-09T04:30:00;14.10;99.90
19152;DHT22;9708;53.114;9.388;2022-09-09T04:32:27;14.00;99.90
19152;DHT22;9708;53.114;9.388;2022-09-09T04:34:54;14.20;99.90
19152;DHT22;9708;53.114;9.388;2022-09-09T04:37:20;14.10;99.90
19152;DHT22;9708;53.114;9.388;2022-09-09T04:39:47;14.10;99.90
19152;DHT22;9708;53.114;9.388;2022-09-09T04:42:14;14.10;99.90
19152;DHT22;9708;53.114;9.388;2022-09-09T04:44:41;14.00;99.90
19152;DHT22;9708;53.114;9.388;2022-09-09T04:47:10;14.00;99.90
19152;DHT22;9708;53.114;9.388;2022-09-09T04:49:37;14.00;99.90
19152;DHT22;9708;53.114;9.388;2022-09-09T04:52:04;14.00;99.90
19152;DHT22;9708;53.114;9.388;2022-09-09T04:54:31;14.00;99.90
19152;DHT22;9708;53.114;9.388;2022-09-09T04:56:58;14.00;99.90
19152;DHT22;9708;53.114;9.388;2022-09-09T04:59:24;14.00;99.90
19152;DHT22;9708;53.114;9.388;2022-09-09T05:01:52;14.10;99.90
19152;DHT22;9708;53.114;9.388;2022-09-09T05:04:21;14.10;99.90
19152;DHT22;9708;53.114;9.388;2022-09-09T05:06:48;14.20;99.90
19152;DHT22;9708;53.114;9.388;2022-09-09T05:09:15;14.20;99.90
19152;DHT22;9708;53.114;9.388;2022-09-09T05:11:42;14.20;99.90
19152;DHT22;9708;53.114;9.388;2022-09-09T05:14:09;14.30;99.90
19152;DHT22;9708;53.114;9.388;2022-09-09T05:16:37;14.30;99.90
19152;DHT22;9708;53.114;9.388;2022-09-09T05:19:04;14.30;99.90
19152;DHT22;9708;53.114;9.388;2022-09-09T05:21:34;14.30;99.90
19152;DHT22;9708;53.114;9.388;2022-09-09T05:24:01;14.40;99.90
19152;DHT22;9708;53.114;9.388;2022-09-09T05:26:28;14.50;99.90
19152;DHT22;9708;53.114;9.388;2022-09-09T05:28:56;14.50;99.90
19152;DHT22;9708;53.114;9.388;2022-09-09T05:31:24;14.60;99.90
19152;DHT22;9708;53.114;9.388;2022-09-09T05:33:54;14.60;99.90
19152;DHT22;9708;53.114;9.388;2022-09-09T05:36:22;14.80;99.90
19152;DHT22;9708;53.114;9.388;2022-09-09T05:38:50;14.90;99.90
19152;DHT22;9708;53.114;9.388;2022-09-09T05:41:19;14.80;99.90
19152;DHT22;9708;53.114;9.388;2022-09-09T05:43:46;14.90;99.90
19152;DHT22;9708;53.114;9.388;2022-09-09T05:46:16;14.90;99.90
19152;DHT22;9708;53.114;9.388;2022-09-09T05:48:44;14.90;99.90
19152;DHT22;9708;53.114;9.388;2022-09-09T05:51:13;14.90;99.90
19152;DHT22;9708;53.114;9.388;2022-09-09T05:53:42;15.00;99.90
19152;DHT22;9708;53.114;9.388;2022-09-09T05:56:12;15.20;99.90
19152;DHT22;9708;53.114;9.388;2022-09-09T05:58:39;15.10;99.90
19152;DHT22;9708;53.114;9.388;2022-09-09T06:01:10;15.00;99.90
19152;DHT22;9708;53.114;9.388;2022-09-09T06:03:38;15.10;99.90
19152;DHT22;9708;53.114;9.388;2022-09-09T06:06:06;15.00;99.90
19152;DHT22;9708;53.114;9.388;2022-09-09T06:08:34;15.00;99.90
19152;DHT22;9708;53.114;9.388;2022-09-09T06:11:03;15.00;99.90
19152;DHT22;9708;53.114;9.388;2022-09-09T06:13:32;15.20;99.90
19152;DHT22;9708;53.114;9.388;2022-09-09T06:15:58;15.10;99.90
19152;DHT22;9708;53.114;9.388;2022-09-09T06:18:26;15.20;99.90
19152;DHT22;9708;53.114;9.388;2022-09-09T06:20:54;15.20;99.90
19152;DHT22;9708;53.114;9.388;2022-09-09T06:23:22;15.20;99.90
19152;DHT22;9708;53.114;9.388;2022-09-09T06:25:48;15.20;99.90
19152;DHT22;9708;53.114;9.388;2022-09-09T06:28:16;15.10;99.90
19152;DHT22;9708;53.114;9.388;2022-09-09T06:30:45;15.10;99.90
19152;DHT22;9708;53.114;9.388;2022-09-09T06:33:12;15.20;99.90
19152;DHT22;9708;53.114;9.388;2022-09-09T06:35:39;15.20;99.90
19152;DHT22;9708;53.114;9.388;2022-09-09T06:38:06;15.10;99.90
19152;DHT22;9708;53.114;9.388;2022-09-09T06:40:34;15.20;99.90
19152;DHT22;9708;53.114;9.388;2022-09-09T06:43:00;15.50;99.90
19152;DHT22;9708;53.114;9.388;2022-09-09T06:45:27;15.40;99.90
19152;DHT22;9708;53.114;9.388;2022-09-09T06:47:56;15.40;99.90
19152;DHT22;9708;53.114;9.388;2022-09-09T06:50:23;15.50;99.90
19152;DHT22;9708;53.114;9.388;2022-09-09T06:52:50;15.50;99.90
19152;DHT22;9708;53.114;9.388;2022-09-09T06:55:17;15.50;99.90
19152;DHT22;9708;53.114;9.388;2022-09-09T06:57:44;15.50;99.90
19152;DHT22;9708;53.114;9.388;2022-09-09T07:00:12;15.60;99.90
19152;DHT22;9708;53.114;9.388;2022-09-09T07:02:39;15.50;99.90
19152;DHT22;9708;53.114;9.388;2022-09-09T07:05:08;15.70;99.90
19152;DHT22;9708;53.114;9.388;2022-09-09T07:07:35;15.80;99.90
19152;DHT22;9708;53.114;9.388;2022-09-09T07:10:03;15.70;99.90
19152;DHT22;9708;53.114;9.388;2022-09-09T07:12:30;15.90;99.90
19152;DHT22;9708;53.114;9.388;2022-09-09T07:14:57;16.00;99.90
19152;DHT22;9708;53.114;9.388;2022-09-09T07:17:24;15.70;99.90
19152;DHT22;9708;53.114;9.388;2022-09-09T07:19:51;15.60;99.90
19152;DHT22;9708;53.114;9.388;2022-09-09T07:22:19;15.80;99.90
19152;DHT22;9708;53.114;9.388;2022-09-09T07:24:46;15.80;99.90
19152;DHT22;9708;53.114;9.388;2022-09-09T07:27:12;15.80;99.90
19152;DHT22;9708;53.114;9.388;2022-09-09T07:29:39;15.90;99.90
19152;DHT22;9708;53.114;9.388;2022-09-09T07:32:06;16.20;99.90
19152;DHT22;9708;53.114;9.388;2022-09-09T07:34:33;16.30;99.90
19152;DHT22;9708;53.114;9.388;2022-09-09T07:37:00;16.40;99.90
19152;DHT22;9708;53.114;9.388;2022-09-09T07:39:28;16.70;99.90
19152;DHT22;9708;53.114;9.388;2022-09-09T07:41:55;16.60;99.90
19152;DHT22;9708;53.114;9.388;2022-09-09T07:44:23;17.00;99.90
19152;DHT22;9708;53.114;9.388;2022-09-09T07:46:50;17.30;99.90
19152;DHT22;9708;53.114;9.388;2022-09-09T07:49:17;17.60;99.90
19152;DHT22;9708;53.114;9.388;2022-09-09T07:51:46;18.60;99.90
19152;DHT22;9708;53.114;9.388;2022-09-09T07:54:15;19.10;99.90
19152;DHT22;9708;53.114;9.388;2022-09-09T07:56:44;19.10;99.90
19152;DHT22;9708;53.114;9.388;2022-09-09T07:59:11;19.60;99.90
19152;DHT22;9708;53.114;9.388;2022-09-09T08:01:39;19.80;99.90
19152;DHT22;9708;53.114;9.388;2022-09-09T08:04:08;19.60;99.90
19152;DHT22;9708;53.114;9.388;2022-09-09T08:06:37;19.50;99.90
19152;DHT22;9708;53.114;9.388;2022-09-09T08:09:05;20.00;99.90
19152;DHT22;9708;53.114;9.388;2022-09-09T08:11:32;19.30;99.90
19152;DHT22;9708;53.114;9.388;2022-09-09T08:14:01;18.80;99.90
19152;DHT22;9708;53.114;9.388;2022-09-09T08:16:31;18.90;99.90
19152;DHT22;9708;53.114;9.388;2022-09-09T08:18:58;19.30;99.90
19152;DHT22;9708;53.114;9.388;2022-09-09T08:21:27;19.40;99.90
19152;DHT22;9708;53.114;9.388;2022-09-09T08:23:55;19.90;99.90
19152;DHT22;9708;53.114;9.388;2022-09-09T08:26:24;20.10;99.90
19152;DHT22;9708;53.114;9.388;2022-09-09T08:28:53;20.60;99.90
19152;DHT22;9708;53.114;9.388;2022-09-09T08:31:24;20.60;99.90
19152;DHT22;9708;53.114;9.388;2022-09-09T08:33:51;21.00;99.90
19152;DHT22;9708;53.114;9.388;2022-09-09T08:36:19;20.70;99.90
19152;DHT22;9708;53.114;9.388;2022-09-09T08:38:48;21.00;99.90
19152;DHT22;9708;53.114;9.388;2022-09-09T08:41:32;22.10;99.90
19152;DHT22;9708;53.114;9.388;2022-09-09T08:44:06;21.60;99.90
19152;DHT22;9708;53.114;9.388;2022-09-09T08:46:42;21.70;99.90
19152;DHT22;9708;53.114;9.388;2022-09-09T08:49:23;22.10;99.90
19152;DHT22;9708;53.114;9.388;2022-09-09T08:51:54;22.80;99.90
19152;DHT22;9708;53.114;9.388;2022-09-09T08:54:21;22.20;99.90
19152;DHT22;9708;53.114;9.388;2022-09-09T08:56:49;22.00;99.90
19152;DHT22;9708;53.114;9.388;2022-09-09T08:59:17;21.80;99.90
19152;DHT22;9708;53.114;9.388;2022-09-09T09:01:57;21.30;99.90
19152;DHT22;9708;53.114;9.388;2022-09-09T09:04:37;21.20;99.90
19152;DHT22;9708;53.114;9.388;2022-09-09T09:07:15;21.20;99.90
19152;DHT22;9708;53.114;9.388;2022-09-09T09:09:50;20.90;99.90
19152;DHT22;9708;53.114;9.388;2022-09-09T09:12:26;20.40;99.90
19152;DHT22;9708;53.114;9.388;2022-09-09T09:14:54;20.60;99.90
19152;DHT22;9708;53.114;9.388;2022-09-09T09:17:27;20.60;99.90
19152;DHT22;9708;53.114;9.388;2022-09-09T09:19:57;20.60;99.90
19152;DHT22;9708;53.114;9.388;2022-09-09T09:22:29;21.20;99.90
19152;DHT22;9708;53.114;9.388;2022-09-09T09:25:04;21.20;99.90
19152;DHT22;9708;53.114;9.388;2022-09-09T09:27:40;21.00;99.90
19152;DHT22;9708;53.114;9.388;2022-09-09T09:30:14;21.80;99.90
19152;DHT22;9708;53.114;9.388;2022-09-09T09:32:49;21.80;99.90
19152;DHT22;9708;53.114;9.388;2022-09-09T09:35:17;21.50;99.90
19152;DHT22;9708;53.114;9.388;2022-09-09T09:37:44;21.80;99.90
19152;DHT22;9708;53.114;9.388;2022-09-09T09:40:11;21.50;99.90
19152;DHT22;9708;53.114;9.388;2022-09-09T09:42:48;20.90;99.90
19152;DHT22;9708;53.114;9.388;2022-09-09T09:45:18;21.90;99.90
19152;DHT22;9708;53.114;9.388;2022-09-09T09:47:59;22.40;99.90
19152;DHT22;9708;53.114;9.388;2022-09-09T09:50:26;21.90;99.90
19152;DHT22;9708;53.114;9.388;2022-09-09T09:52:56;22.10;99.90
19152;DHT22;9708;53.114;9.388;2022-09-09T09:55:24;22.60;99.90
19152;DHT22;9708;53.114;9.388;2022-09-09T09:57:51;23.20;99.90
19152;DHT22;9708;53.114;9.388;2022-09-09T10:00:20;22.80;99.90
19152;DHT22;9708;53.114;9.388;2022-09-09T10:02:48;23.50;99.90
19152;DHT22;9708;53.114;9.388;2022-09-09T10:05:20;23.00;99.90
19152;DHT22;9708;53.114;9.388;2022-09-09T10:07:47;21.70;99.90
19152;DHT22;9708;53.114;9.388;2022-09-09T10:10:32;21.50;99.90
19152;DHT22;9708;53.114;9.388;2022-09-09T10:13:06;21.60;99.90
19152;DHT22;9708;53.114;9.388;2022-09-09T10:15:41;21.40;99.90
19152;DHT22;9708;53.114;9.388;2022-09-09T10:18:25;21.60;99.90
19152;DHT22;9708;53.114;9.388;2022-09-09T10:21:05;21.90;99.90
19152;DHT22;9708;53.114;9.388;2022-09-09T10:23:46;21.40;99.90
19152;DHT22;9708;53.114;9.388;2022-09-09T10:26:31;21.30;99.90
19152;DHT22;9708;53.114;9.388;2022-09-09T10:29:13;22.00;99.90
19152;DHT22;9708;53.114;9.388;2022-09-09T10:31:51;22.40;99.90
19152;DHT22;9708;53.114;9.388;2022-09-09T10:34:30;21.80;99.90
19152;DHT22;9708;53.114;9.388;2022-09-09T10:37:00;21.80;99.90
19152;DHT22;9708;53.114;9.388;2022-09-09T10:39:35;21.40;99.90
19152;DHT22;9708;53.114;9.388;2022-09-09T10:42:06;21.30;99.90
19152;DHT22;9708;53.114;9.388;2022-09-09T10:44:48;21.20;99.90
19152;DHT22;9708;53.114;9.388;2022-09-09T10:50:16;21.20;99.90
19152;DHT22;9708;53.114;9.388;2022-09-09T10:52:54;20.80;99.90
19152;DHT22;9708;53.114;9.388;2022-09-09T10:55:27;20.60;99.90
19152;DHT22;9708;53.114;9.388;2022-09-09T10:57:57;20.30;99.90
19152;DHT22;9708;53.114;9.388;2022-09-09T11:00:31;20.20;99.90
19152;DHT22;9708;53.114;9.388;2022-09-09T11:03:02;20.00;99.90
19152;DHT22;9708;53.114;9.388;2022-09-09T11:05:33;19.90;99.90
19152;DHT22;9708;53.114;9.388;2022-09-09T11:08:05;19.80;99.90
19152;DHT22;9708;53.114;9.388;2022-09-09T11:10:38;19.90;99.90
19152;DHT22;9708;53.114;9.388;2022-09-09T11:13:15;19.80;99.90
19152;DHT22;9708;53.114;9.388;2022-09-09T11:15:45;19.80;99.90
19152;DHT22;9708;53.114;9.388;2022-09-09T11:18:19;19.80;99.90
19152;DHT22;9708;53.114;9.388;2022-09-09T11:20:50;19.60;99.90
19152;DHT22;9708;53.114;9.388;2022-09-09T11:23:23;19.60;99.90
19152;DHT22;9708;53.114;9.388;2022-09-09T11:25:54;19.50;99.90
19152;DHT22;9708;53.114;9.388;2022-09-09T11:28:36;19.30;99.90
19152;DHT22;9708;53.114;9.388;2022-09-09T11:31:21;19.00;99.90
19152;DHT22;9708;53.114;9.388;2022-09-09T11:34:13;18.90;99.90
19152;DHT22;9708;53.114;9.388;2022-09-09T11:37:01;18.90;99.90
19152;DHT22;9708;53.114;9.388;2022-09-09T11:39:52;18.70;99.90
19152;DHT22;9708;53.114;9.388;2022-09-09T11:42:25;18.60;99.90
19152;DHT22;9708;53.114;9.388;2022-09-09T11:44:52;18.70;99.90
19152;DHT22;9708;53.114;9.388;2022-09-09T11:47:23;18.50;99.90
19152;DHT22;9708;53.114;9.388;2022-09-09T11:49:55;18.50;99.90
19152;DHT22;9708;53.114;9.388;2022-09-09T11:52:24;18.40;99.90
19152;DHT22;9708;53.114;9.388;2022-09-09T11:54:55;18.40;99.90
19152;DHT22;9708;53.114;9.388;2022-09-09T11:57:25;18.50;99.90
19152;DHT22;9708;53.114;9.388;2022-09-09T11:59:56;18.60;99.90
19152;DHT22;9708;53.114;9.388;2022-09-09T12:02:24;18.50;99.90
19152;DHT22;9708;53.114;9.388;2022-09-09T12:04:57;18.50;99.90
19152;DHT22;9708;53.114;9.388;2022-09-09T12:07:31;18.40;99.90
19152;DHT22;9708;53.114;9.388;2022-09-09T12:10:04;18.50;99.90
19152;DHT22;9708;53.114;9.388;2022-09-09T12:12:33;18.30;99.90
19152;DHT22;9708;53.114;9.388;2022-09-09T12:15:17;18.30;99.90
19152;DHT22;9708;53.114;9.388;2022-09-09T12:17:47;18.50;99.90
19152;DHT22;9708;53.114;9.388;2022-09-09T12:20:17;18.50;99.90
19152;DHT22;9708;53.114;9.388;2022-09-09T12:23:01;18.20;99.90
19152;DHT22;9708;53.114;9.388;2022-09-09T12:25:46;18.10;99.90
19152;DHT22;9708;53.114;9.388;2022-09-09T12:28:17;18.30;99.90
19152;DHT22;9708;53.114;9.388;2022-09-09T12:30:52;18.40;99.90
19152;DHT22;9708;53.114;9.388;2022-09-09T12:33:22;18.30;99.90
19152;DHT22;9708;53.114;9.388;2022-09-09T12:35:54;18.20;99.90
19152;DHT22;9708;53.114;9.388;2022-09-09T12:38:27;18.10;99.90
19152;DHT22;9708;53.114;9.388;2022-09-09T12:40:58;18.10;99.90
19152;DHT22;9708;53.114;9.388;2022-09-09T12:43:26;18.00;99.90
19152;DHT22;9708;53.114;9.388;2022-09-09T12:45:56;17.90;99.90
19152;DHT22;9708;53.114;9.388;2022-09-09T12:48:29;17.90;99.90
19152;DHT22;9708;53.114;9.388;2022-09-09T12:50:57;17.80;99.90
19152;DHT22;9708;53.114;9.388;2022-09-09T12:53:27;17.60;99.90
19152;DHT22;9708;53.114;9.388;2022-09-09T12:55:59;17.20;99.90
19152;DHT22;9708;53.114;9.388;2022-09-09T12:58:29;16.90;99.90
19152;DHT22;9708;53.114;9.388;2022-09-09T13:00:59;16.80;99.90
19152;DHT22;9708;53.114;9.388;2022-09-09T13:03:26;16.60;99.90
19152;DHT22;9708;53.114;9.388;2022-09-09T13:05:57;16.70;99.90
19152;DHT22;9708;53.114;9.388;2022-09-09T13:08:26;16.50;99.90
19152;DHT22;9708;53.114;9.388;2022-09-09T13:10:55;16.50;99.90
19152;DHT22;9708;53.114;9.388;2022-09-09T13:13:27;16.50;99.90
19152;DHT22;9708;53.114;9.388;2022-09-09T13:15:57;16.50;99.90
19152;DHT22;9708;53.114;9.388;2022-09-09T13:18:26;16.40;99.90
19152;DHT22;9708;53.114;9.388;2022-09-09T13:20:54;16.40;99.90
19152;DHT22;9708;53.114;9.388;2022-09-09T13:23:27;16.50;99.90
19152;DHT22;9708;53.114;9.388;2022-09-09T13:25:56;16.50;99.90
19152;DHT22;9708;53.114;9.388;2022-09-09T13:28:24;16.50;99.90
19152;DHT22;9708;53.114;9.388;2022-09-09T13:30:58;16.40;99.90
19152;DHT22;9708;53.114;9.388;2022-09-09T13:33:32;16.50;99.90
19152;DHT22;9708;53.114;9.388;2022-09-09T13:36:02;16.70;99.90
19152;DHT22;9708;53.114;9.388;2022-09-09T13:38:32;16.80;99.90
19152;DHT22;9708;53.114;9.388;2022-09-09T13:41:01;17.00;99.90
19152;DHT22;9708;53.114;9.388;2022-09-09T13:43:31;17.20;99.90
19152;DHT22;9708;53.114;9.388;2022-09-09T13:46:03;17.50;99.90
19152;DHT22;9708;53.114;9.388;2022-09-09T13:48:30;17.50;99.90
19152;DHT22;9708;53.114;9.388;2022-09-09T13:51:00;17.60;99.90
19152;DHT22;9708;53.114;9.388;2022-09-09T13:53:27;17.80;99.90
19152;DHT22;9708;53.114;9.388;2022-09-09T13:55:55;18.00;99.90
19152;DHT22;9708;53.114;9.388;2022-09-09T13:58:23;18.20;99.90
19152;DHT22;9708;53.114;9.388;2022-09-09T14:00:50;18.10;99.90
19152;DHT22;9708;53.114;9.388;2022-09-09T14:03:19;18.20;99.90
19152;DHT22;9708;53.114;9.388;2022-09-09T14:05:46;18.50;99.90
19152;DHT22;9708;53.114;9.388;2022-09-09T14:08:21;18.90;99.90
19152;DHT22;9708;53.114;9.388;2022-09-09T14:10:48;19.30;99.90
19152;DHT22;9708;53.114;9.388;2022-09-09T14:13:14;19.40;99.90
19152;DHT22;9708;53.114;9.388;2022-09-09T14:15:41;19.40;99.90
19152;DHT22;9708;53.114;9.388;2022-09-09T14:18:10;19.40;99.90
19152;DHT22;9708;53.114;9.388;2022-09-09T14:20:39;19.40;99.90
19152;DHT22;9708;53.114;9.388;2022-09-09T14:23:05;19.60;99.90
19152;DHT22;9708;53.114;9.388;2022-09-09T14:25:32;19.50;99.90
19152;DHT22;9708;53.114;9.388;2022-09-09T14:27:59;19.30;99.90
19152;DHT22;9708;53.114;9.388;2022-09-09T14:30:27;19.20;99.90
19152;DHT22;9708;53.114;9.388;2022-09-09T14:32:54;19.10;99.90
19152;DHT22;9708;53.114;9.388;2022-09-09T14:35:21;19.30;99.90
19152;DHT22;9708;53.114;9.388;2022-09-09T14:37:49;19.20;99.90
19152;DHT22;9708;53.114;9.388;2022-09-09T14:40:16;19.00;99.90
19152;DHT22;9708;53.114;9.388;2022-09-09T14:42:42;19.20;99.90
19152;DHT22;9708;53.114;9.388;2022-09-09T14:45:11;19.00;99.90
19152;DHT22;9708;53.114;9.388;2022-09-09T14:47:37;19.10;99.90
19152;DHT22;9708;53.114;9.388;2022-09-09T14:50:05;19.10;99.90
19152;DHT22;9708;53.114;9.388;2022-09-09T14:52:33;19.00;99.90
19152;DHT22;9708;53.114;9.388;2022-09-09T14:55:01;19.00;99.90
19152;DHT22;9708;53.114;9.388;2022-09-09T14:57:28;18.90;99.90
19152;DHT22;9708;53.114;9.388;2022-09-09T14:59:55;19.00;99.90
19152;DHT22;9708;53.114;9.388;2022-09-09T15:02:22;19.00;99.90
19152;DHT22;9708;53.114;9.388;2022-09-09T15:04:49;19.00;99.90
19152;DHT22;9708;53.114;9.388;2022-09-09T15:07:16;18.80;99.90
19152;DHT22;9708;53.114;9.388;2022-09-09T15:09:44;18.80;99.90
19152;DHT22;9708;53.114;9.388;2022-09-09T15:12:14;18.80;99.90
19152;DHT22;9708;53.114;9.388;2022-09-09T15:14:41;18.90;99.90
19152;DHT22;9708;53.114;9.388;2022-09-09T15:17:08;18.80;99.90
19152;DHT22;9708;53.114;9.388;2022-09-09T15:19:34;18.80;99.90
19152;DHT22;9708;53.114;9.388;2022-09-09T15:22:02;18.70;99.90
19152;DHT22;9708;53.114;9.388;2022-09-09T15:24:30;18.30;99.90
19152;DHT22;9708;53.114;9.388;2022-09-09T15:26:57;18.30;99.90
19152;DHT22;9708;53.114;9.388;2022-09-09T15:29:25;18.30;99.90
19152;DHT22;9708;53.114;9.388;2022-09-09T15:31:53;18.20;99.90
19152;DHT22;9708;53.114;9.388;2022-09-09T15:34:21;18.10;99.90
19152;DHT22;9708;53.114;9.388;2022-09-09T15:36:48;18.10;99.90
19152;DHT22;9708;53.114;9.388;2022-09-09T15:39:16;18.10;99.90
19152;DHT22;9708;53.114;9.388;2022-09-09T15:41:44;18.00;99.90
19152;DHT22;9708;53.114;9.388;2022-09-09T15:44:12;17.90;99.90
19152;DHT22;9708;53.114;9.388;2022-09-09T15:46:41;18.00;99.90
19152;DHT22;9708;53.114;9.388;2022-09-09T15:49:10;17.90;99.90
19152;DHT22;9708;53.114;9.388;2022-09-09T15:51:38;17.80;99.90
19152;DHT22;9708;53.114;9.388;2022-09-09T15:54:05;17.80;99.90
19152;DHT22;9708;53.114;9.388;2022-09-09T15:56:32;17.80;99.90
19152;DHT22;9708;53.114;9.388;2022-09-09T15:59:01;17.70;99.90
19152;DHT22;9708;53.114;9.388;2022-09-09T16:01:29;17.70;99.90
19152;DHT22;9708;53.114;9.388;2022-09-09T16:03:58;17.60;99.90
19152;DHT22;9708;53.114;9.388;2022-09-09T16:06:27;17.60;99.90
19152;DHT22;9708;53.114;9.388;2022-09-09T16:08:56;17.60;99.90